sensor_id;sensor_type;location;lat;lon;timestamp;P1;durP1;ratioP1;P2;durP2;ratioP2
6101;SDS011;3081;50.584;7.032;2023-12-20T00:00:20;1.47;;;0.60;;
6101;SDS011;3081;50.584;7.032;2023-12-20T00:02:47;0.90;;;0.50;;
6101;SDS011;3081;50.584;7.032;2023-12-20T00:05:14;0.80;;;0.30;;
6101;SDS011;3081;50.584;7.032;2023-12-20T00:07:41;0.93;;;0.43;;
6101;SDS011;3081;50.584;7.032;2023-12-20T00:10:08;0.80;;;0.40;;
6101;SDS011;3081;50.584;7.032;2023-12-20T00:12:39;0.80;;;0.40;;
6101;SDS011;3081;50.584;7.032;2023-12-20T00:15:06;0.80;;;0.30;;
6101;SDS011;3081;50.584;7.032;2023-12-20T00:17:34;0.80;;;0.40;;
6101;SDS011;3081;50.584;7.032;2023-12-20T00:20:01;0.80;;;0.40;;
6101;SDS011;3081;50.584;7.032;2023-12-20T00:22:28;0.80;;;0.30;;
6101;SDS011;3081;50.584;7.032;2023-12-20T00:24:55;0.80;;;0.30;;
6101;SDS011;3081;50.584;7.032;2023-12-20T00:27:21;0.80;;;0.40;;
6101;SDS011;3081;50.584;7.032;2023-12-20T00:29:50;0.80;;;0.30;;
6101;SDS011;3081;50.584;7.032;2023-12-20T00:32:17;0.80;;;0.40;;
6101;SDS011;3081;50.584;7.032;2023-12-20T00:34:44;0.80;;;0.30;;
6101;SDS011;3081;50.584;7.032;2023-12-20T00:37:11;0.80;;;0.30;;
6101;SDS011;3081;50.584;7.032;2023-12-20T00:39:38;1.70;;;0.50;;
6101;SDS011;3081;50.584;7.032;2023-12-20T00:42:05;2.03;;;0.47;;
6101;SDS011;3081;50.584;7.032;2023-12-20T00:44:32;0.80;;;0.40;;
6101;SDS011;3081;50.584;7.032;2023-12-20T00:47:00;0.80;;;0.40;;
6101;SDS011;3081;50.584;7.032;2023-12-20T00:49:27;0.80;;;0.30;;
6101;SDS011;3081;50.584;7.032;2023-12-20T00:51:54;0.90;;;0.40;;
6101;SDS011;3081;50.584;7.032;2023-12-20T00:54:21;0.80;;;0.30;;
6101;SDS011;3081;50.584;7.032;2023-12-20T00:56:48;0.80;;;0.50;;
6101;SDS011;3081;50.584;7.032;2023-12-20T00:59:16;0.80;;;0.30;;
6101;SDS011;3081;50.584;7.032;2023-12-20T01:01:43;0.90;;;0.40;;
6101;SDS011;3081;50.584;7.032;2023-12-20T01:04:12;0.80;;;0.50;;
6101;SDS011;3081;50.584;7.032;2023-12-20T01:06:38;0.80;;;0.40;;
6101;SDS011;3081;50.584;7.032;2023-12-20T01:09:05;1.00;;;0.63;;
6101;SDS011;3081;50.584;7.032;2023-12-20T01:11:32;0.80;;;0.40;;
6101;SDS011;3081;50.584;7.032;2023-12-20T01:13:59;0.80;;;0.30;;
6101;SDS011;3081;50.584;7.032;2023-12-20T01:16:25;1.13;;;0.30;;
6101;SDS011;3081;50.584;7.032;2023-12-20T01:18:52;0.73;;;0.30;;
6101;SDS011;3081;50.584;7.032;2023-12-20T01:21:20;1.30;;;0.60;;
6101;SDS011;3081;50.584;7.032;2023-12-20T01:23:47;1.23;;;0.60;;
6101;SDS011;3081;50.584;7.032;2023-12-20T01:26:14;0.90;;;0.40;;
6101;SDS011;3081;50.584;7.032;2023-12-20T01:28:41;1.20;;;0.90;;
6101;SDS011;3081;50.584;7.032;2023-12-20T01:31:08;0.80;;;0.50;;
6101;SDS011;3081;50.584;7.032;2023-12-20T01:33:35;1.83;;;1.20;;
6101;SDS011;3081;50.584;7.032;2023-12-20T01:36:02;1.40;;;1.03;;
6101;SDS011;3081;50.584;7.032;2023-12-20T01:38:31;1.20;;;0.90;;
6101;SDS011;3081;50.584;7.032;2023-12-20T01:40:58;1.50;;;1.17;;
6101;SDS011;3081;50.584;7.032;2023-12-20T01:43:25;2.30;;;2.07;;
6101;SDS011;3081;50.584;7.032;2023-12-20T01:45:52;3.60;;;2.40;;
6101;SDS011;3081;50.584;7.032;2023-12-20T01:48:21;1.20;;;0.90;;
6101;SDS011;3081;50.584;7.032;2023-12-20T01:50:49;8.33;;;2.70;;
6101;SDS011;3081;50.584;7.032;2023-12-20T01:53:16;4.63;;;3.23;;
6101;SDS011;3081;50.584;7.032;2023-12-20T01:55:46;4.00;;;2.80;;
6101;SDS011;3081;50.584;7.032;2023-12-20T01:58:16;4.17;;;3.13;;
6101;SDS011;3081;50.584;7.032;2023-12-20T02:00:44;6.77;;;3.53;;
6101;SDS011;3081;50.584;7.032;2023-12-20T02:03:11;4.87;;;2.93;;
6101;SDS011;3081;50.584;7.032;2023-12-20T02:05:38;5.97;;;4.50;;
6101;SDS011;3081;50.584;7.032;2023-12-20T02:08:06;5.90;;;4.07;;
6101;SDS011;3081;50.584;7.032;2023-12-20T02:10:33;16.30;;;5.43;;
6101;SDS011;3081;50.584;7.032;2023-12-20T02:13:02;11.07;;;6.87;;
6101;SDS011;3081;50.584;7.032;2023-12-20T02:15:30;4.87;;;4.03;;
6101;SDS011;3081;50.584;7.032;2023-12-20T02:17:57;5.20;;;4.00;;
6101;SDS011;3081;50.584;7.032;2023-12-20T02:20:24;14.13;;;5.50;;
6101;SDS011;3081;50.584;7.032;2023-12-20T02:22:52;9.23;;;5.33;;
6101;SDS011;3081;50.584;7.032;2023-12-20T02:25:19;13.13;;;7.13;;
6101;SDS011;3081;50.584;7.032;2023-12-20T02:27:46;11.03;;;4.37;;
6101;SDS011;3081;50.584;7.032;2023-12-20T02:30:13;3.93;;;3.10;;
6101;SDS011;3081;50.584;7.032;2023-12-20T02:32:41;7.33;;;4.47;;
6101;SDS011;3081;50.584;7.032;2023-12-20T02:35:07;1.80;;;1.70;;
6101;SDS011;3081;50.584;7.032;2023-12-20T02:37:34;6.03;;;2.10;;
6101;SDS011;3081;50.584;7.032;2023-12-20T02:40:03;2.50;;;1.67;;
6101;SDS011;3081;50.584;7.032;2023-12-20T02:42:30;6.20;;;2.43;;
6101;SDS011;3081;50.584;7.032;2023-12-20T02:44:57;2.40;;;1.87;;
6101;SDS011;3081;50.584;7.032;2023-12-20T02:47:24;5.70;;;1.73;;
6101;SDS011;3081;50.584;7.032;2023-12-20T02:49:51;3.83;;;1.77;;
6101;SDS011;3081;50.584;7.032;2023-12-20T02:52:19;1.17;;;1.07;;
6101;SDS011;3081;50.584;7.032;2023-12-20T02:54:45;3.87;;;1.80;;
6101;SDS011;3081;50.584;7.032;2023-12-20T02:57:14;4.63;;;1.73;;
6101;SDS011;3081;50.584;7.032;2023-12-20T02:59:40;3.47;;;1.20;;
6101;SDS011;3081;50.584;7.032;2023-12-20T03:02:07;1.20;;;0.90;;
6101;SDS011;3081;50.584;7.032;2023-12-20T03:04:34;3.50;;;1.47;;
6101;SDS011;3081;50.584;7.032;2023-12-20T03:07:01;4.00;;;1.00;;
6101;SDS011;3081;50.584;7.032;2023-12-20T03:09:28;5.17;;;1.97;;
6101;SDS011;3081;50.584;7.032;2023-12-20T03:11:55;0.80;;;0.40;;
6101;SDS011;3081;50.584;7.032;2023-12-20T03:14:23;1.17;;;0.80;;
6101;SDS011;3081;50.584;7.032;2023-12-20T03:16:50;1.20;;;0.50;;
6101;SDS011;3081;50.584;7.032;2023-12-20T03:19:17;1.50;;;1.23;;
6101;SDS011;3081;50.584;7.032;2023-12-20T03:21:45;4.87;;;1.10;;
6101;SDS011;3081;50.584;7.032;2023-12-20T03:24:12;1.30;;;0.80;;
6101;SDS011;3081;50.584;7.032;2023-12-20T03:26:38;1.00;;;0.57;;
6101;SDS011;3081;50.584;7.032;2023-12-20T03:29:05;4.40;;;1.00;;
6101;SDS011;3081;50.584;7.032;2023-12-20T03:31:34;3.30;;;1.10;;
6101;SDS011;3081;50.584;7.032;2023-12-20T03:34:00;4.50;;;1.00;;
6101;SDS011;3081;50.584;7.032;2023-12-20T03:36:27;3.00;;;1.17;;
6101;SDS011;3081;50.584;7.032;2023-12-20T03:38:53;3.80;;;0.70;;
6101;SDS011;3081;50.584;7.032;2023-12-20T03:41:20;2.03;;;1.23;;
6101;SDS011;3081;50.584;7.032;2023-12-20T03:43:47;2.17;;;0.90;;
6101;SDS011;3081;50.584;7.032;2023-12-20T03:46:14;1.83;;;1.73;;
6101;SDS011;3081;50.584;7.032;2023-12-20T03:48:42;4.60;;;0.83;;
6101;SDS011;3081;50.584;7.032;2023-12-20T03:51:09;9.53;;;1.27;;
6101;SDS011;3081;50.584;7.032;2023-12-20T03:53:37;0.90;;;0.67;;
6101;SDS011;3081;50.584;7.032;2023-12-20T03:56:05;9.00;;;1.17;;
6101;SDS011;3081;50.584;7.032;2023-12-20T03:58:32;0.80;;;0.40;;
6101;SDS011;3081;50.584;7.032;2023-12-20T04:00:59;1.97;;;1.00;;
6101;SDS011;3081;50.584;7.032;2023-12-20T04:03:27;1.20;;;0.70;;
6101;SDS011;3081;50.584;7.032;2023-12-20T04:05:55;4.90;;;1.40;;
6101;SDS011;3081;50.584;7.032;2023-12-20T04:08:22;4.70;;;0.90;;
6101;SDS011;3081;50.584;7.032;2023-12-20T04:10:49;5.80;;;0.93;;
6101;SDS011;3081;50.584;7.032;2023-12-20T04:13:16;0.90;;;0.40;;
6101;SDS011;3081;50.584;7.032;2023-12-20T04:15:43;7.57;;;1.37;;
6101;SDS011;3081;50.584;7.032;2023-12-20T04:18:10;2.07;;;1.03;;
6101;SDS011;3081;50.584;7.032;2023-12-20T04:20:37;3.50;;;0.97;;
6101;SDS011;3081;50.584;7.032;2023-12-20T04:23:05;1.50;;;0.80;;
6101;SDS011;3081;50.584;7.032;2023-12-20T04:25:32;2.73;;;1.00;;
6101;SDS011;3081;50.584;7.032;2023-12-20T04:27:59;5.93;;;1.63;;
6101;SDS011;3081;50.584;7.032;2023-12-20T04:30:26;1.23;;;0.97;;
6101;SDS011;3081;50.584;7.032;2023-12-20T04:32:52;3.50;;;1.40;;
6101;SDS011;3081;50.584;7.032;2023-12-20T04:35:19;3.00;;;1.43;;
6101;SDS011;3081;50.584;7.032;2023-12-20T04:37:46;2.93;;;1.37;;
6101;SDS011;3081;50.584;7.032;2023-12-20T04:40:15;2.83;;;1.00;;
6101;SDS011;3081;50.584;7.032;2023-12-20T04:42:43;8.77;;;1.27;;
6101;SDS011;3081;50.584;7.032;2023-12-20T04:45:09;1.77;;;1.03;;
6101;SDS011;3081;50.584;7.032;2023-12-20T04:47:38;2.27;;;1.00;;
6101;SDS011;3081;50.584;7.032;2023-12-20T04:50:05;5.33;;;1.70;;
6101;SDS011;3081;50.584;7.032;2023-12-20T04:52:33;5.93;;;1.27;;
6101;SDS011;3081;50.584;7.032;2023-12-20T04:55:00;2.93;;;1.27;;
6101;SDS011;3081;50.584;7.032;2023-12-20T04:57:28;1.37;;;0.67;;
6101;SDS011;3081;50.584;7.032;2023-12-20T04:59:55;3.77;;;1.33;;
6101;SDS011;3081;50.584;7.032;2023-12-20T05:02:22;1.40;;;1.03;;
6101;SDS011;3081;50.584;7.032;2023-12-20T05:04:49;1.53;;;1.00;;
6101;SDS011;3081;50.584;7.032;2023-12-20T05:07:16;3.20;;;1.30;;
6101;SDS011;3081;50.584;7.032;2023-12-20T05:09:43;6.50;;;1.37;;
6101;SDS011;3081;50.584;7.032;2023-12-20T05:12:10;4.40;;;1.33;;
6101;SDS011;3081;50.584;7.032;2023-12-20T05:14:38;7.50;;;1.87;;
6101;SDS011;3081;50.584;7.032;2023-12-20T05:17:05;2.30;;;1.07;;
6101;SDS011;3081;50.584;7.032;2023-12-20T05:19:32;3.03;;;1.10;;
6101;SDS011;3081;50.584;7.032;2023-12-20T05:22:00;1.00;;;0.70;;
6101;SDS011;3081;50.584;7.032;2023-12-20T05:24:27;6.70;;;1.80;;
6101;SDS011;3081;50.584;7.032;2023-12-20T05:26:54;8.00;;;0.93;;
6101;SDS011;3081;50.584;7.032;2023-12-20T05:29:21;3.67;;;1.70;;
6101;SDS011;3081;50.584;7.032;2023-12-20T05:31:49;2.10;;;1.07;;
6101;SDS011;3081;50.584;7.032;2023-12-20T05:34:16;0.90;;;0.53;;
6101;SDS011;3081;50.584;7.032;2023-12-20T05:36:44;3.43;;;1.40;;
6101;SDS011;3081;50.584;7.032;2023-12-20T05:39:11;3.27;;;1.13;;
6101;SDS011;3081;50.584;7.032;2023-12-20T05:41:37;2.43;;;1.10;;
6101;SDS011;3081;50.584;7.032;2023-12-20T05:44:04;3.40;;;1.57;;
6101;SDS011;3081;50.584;7.032;2023-12-20T05:46:31;8.73;;;1.80;;
6101;SDS011;3081;50.584;7.032;2023-12-20T05:48:59;4.03;;;1.30;;
6101;SDS011;3081;50.584;7.032;2023-12-20T05:51:26;1.43;;;0.83;;
6101;SDS011;3081;50.584;7.032;2023-12-20T05:53:53;2.53;;;1.50;;
6101;SDS011;3081;50.584;7.032;2023-12-20T05:56:20;0.93;;;0.53;;
6101;SDS011;3081;50.584;7.032;2023-12-20T05:58:47;3.93;;;2.20;;
6101;SDS011;3081;50.584;7.032;2023-12-20T06:01:14;8.73;;;1.20;;
6101;SDS011;3081;50.584;7.032;2023-12-20T06:03:42;2.13;;;1.60;;
6101;SDS011;3081;50.584;7.032;2023-12-20T06:06:12;1.63;;;0.90;;
6101;SDS011;3081;50.584;7.032;2023-12-20T06:08:40;4.03;;;1.13;;
6101;SDS011;3081;50.584;7.032;2023-12-20T06:11:08;0.90;;;0.57;;
6101;SDS011;3081;50.584;7.032;2023-12-20T06:13:35;1.13;;;0.87;;
6101;SDS011;3081;50.584;7.032;2023-12-20T06:16:02;1.00;;;0.60;;
6101;SDS011;3081;50.584;7.032;2023-12-20T06:18:31;1.83;;;0.67;;
6101;SDS011;3081;50.584;7.032;2023-12-20T06:20:58;0.90;;;0.70;;
6101;SDS011;3081;50.584;7.032;2023-12-20T06:23:26;1.53;;;0.60;;
6101;SDS011;3081;50.584;7.032;2023-12-20T06:25:53;1.10;;;0.50;;
6101;SDS011;3081;50.584;7.032;2023-12-20T06:28:20;1.57;;;0.70;;
6101;SDS011;3081;50.584;7.032;2023-12-20T06:30:47;3.37;;;1.10;;
6101;SDS011;3081;50.584;7.032;2023-12-20T06:33:14;6.53;;;1.10;;
6101;SDS011;3081;50.584;7.032;2023-12-20T06:35:41;0.80;;;0.40;;
6101;SDS011;3081;50.584;7.032;2023-12-20T06:38:08;2.20;;;1.13;;
6101;SDS011;3081;50.584;7.032;2023-12-20T06:40:36;3.63;;;1.00;;
6101;SDS011;3081;50.584;7.032;2023-12-20T06:43:03;2.70;;;1.20;;
6101;SDS011;3081;50.584;7.032;2023-12-20T06:45:31;0.80;;;0.30;;
6101;SDS011;3081;50.584;7.032;2023-12-20T06:47:58;2.30;;;1.40;;
6101;SDS011;3081;50.584;7.032;2023-12-20T06:50:25;1.27;;;0.83;;
6101;SDS011;3081;50.584;7.032;2023-12-20T06:52:52;6.50;;;2.00;;
6101;SDS011;3081;50.584;7.032;2023-12-20T06:55:19;1.67;;;0.80;;
6101;SDS011;3081;50.584;7.032;2023-12-20T06:57:48;2.40;;;0.83;;
6101;SDS011;3081;50.584;7.032;2023-12-20T07:00:15;3.73;;;1.10;;
6101;SDS011;3081;50.584;7.032;2023-12-20T07:02:43;3.57;;;1.17;;
6101;SDS011;3081;50.584;7.032;2023-12-20T07:05:10;1.00;;;0.70;;
6101;SDS011;3081;50.584;7.032;2023-12-20T07:07:37;1.30;;;0.80;;
6101;SDS011;3081;50.584;7.032;2023-12-20T07:10:04;4.57;;;1.73;;
6101;SDS011;3081;50.584;7.032;2023-12-20T07:12:32;0.80;;;0.40;;
6101;SDS011;3081;50.584;7.032;2023-12-20T07:15:01;7.83;;;1.07;;
6101;SDS011;3081;50.584;7.032;2023-12-20T07:17:28;1.80;;;1.43;;
6101;SDS011;3081;50.584;7.032;2023-12-20T07:19:55;3.50;;;1.08;;
6101;SDS011;3081;50.584;7.032;2023-12-20T07:22:22;0.90;;;0.40;;
6101;SDS011;3081;50.584;7.032;2023-12-20T07:24:49;1.20;;;0.57;;
6101;SDS011;3081;50.584;7.032;2023-12-20T07:27:17;2.40;;;1.07;;
6101;SDS011;3081;50.584;7.032;2023-12-20T07:29:44;4.40;;;1.10;;
6101;SDS011;3081;50.584;7.032;2023-12-20T07:32:12;1.87;;;1.37;;
6101;SDS011;3081;50.584;7.032;2023-12-20T07:34:39;2.60;;;1.20;;
6101;SDS011;3081;50.584;7.032;2023-12-20T07:37:06;1.20;;;0.70;;
6101;SDS011;3081;50.584;7.032;2023-12-20T07:39:35;0.90;;;0.50;;
6101;SDS011;3081;50.584;7.032;2023-12-20T07:42:02;8.33;;;0.70;;
6101;SDS011;3081;50.584;7.032;2023-12-20T07:44:29;6.80;;;1.80;;
6101;SDS011;3081;50.584;7.032;2023-12-20T07:46:56;6.30;;;1.83;;
6101;SDS011;3081;50.584;7.032;2023-12-20T07:49:24;8.03;;;1.53;;
6101;SDS011;3081;50.584;7.032;2023-12-20T07:51:51;2.03;;;1.03;;
6101;SDS011;3081;50.584;7.032;2023-12-20T07:54:18;5.53;;;1.47;;
6101;SDS011;3081;50.584;7.032;2023-12-20T07:56:46;11.70;;;2.07;;
6101;SDS011;3081;50.584;7.032;2023-12-20T07:59:13;3.63;;;1.33;;
6101;SDS011;3081;50.584;7.032;2023-12-20T08:01:40;1.87;;;0.70;;
6101;SDS011;3081;50.584;7.032;2023-12-20T08:04:07;1.20;;;0.80;;
6101;SDS011;3081;50.584;7.032;2023-12-20T08:06:36;1.47;;;0.90;;
6101;SDS011;3081;50.584;7.032;2023-12-20T08:09:02;7.63;;;1.30;;
6101;SDS011;3081;50.584;7.032;2023-12-20T08:11:30;2.60;;;1.40;;
6101;SDS011;3081;50.584;7.032;2023-12-20T08:13:57;6.37;;;1.43;;
6101;SDS011;3081;50.584;7.032;2023-12-20T08:16:24;9.40;;;1.47;;
6101;SDS011;3081;50.584;7.032;2023-12-20T08:18:51;5.67;;;0.80;;
6101;SDS011;3081;50.584;7.032;2023-12-20T08:21:18;2.30;;;0.93;;
6101;SDS011;3081;50.584;7.032;2023-12-20T08:23:48;3.77;;;1.43;;
6101;SDS011;3081;50.584;7.032;2023-12-20T08:26:18;2.20;;;0.70;;
6101;SDS011;3081;50.584;7.032;2023-12-20T08:28:46;6.73;;;1.73;;
6101;SDS011;3081;50.584;7.032;2023-12-20T08:31:13;15.73;;;1.13;;
6101;SDS011;3081;50.584;7.032;2023-12-20T08:33:41;5.80;;;0.90;;
6101;SDS011;3081;50.584;7.032;2023-12-20T08:36:09;3.97;;;1.37;;
6101;SDS011;3081;50.584;7.032;2023-12-20T08:38:36;1.70;;;0.77;;
6101;SDS011;3081;50.584;7.032;2023-12-20T08:41:04;1.60;;;0.90;;
6101;SDS011;3081;50.584;7.032;2023-12-20T08:43:31;10.73;;;1.37;;
6101;SDS011;3081;50.584;7.032;2023-12-20T08:46:00;1.10;;;0.60;;
6101;SDS011;3081;50.584;7.032;2023-12-20T08:48:27;2.50;;;1.27;;
6101;SDS011;3081;50.584;7.032;2023-12-20T08:50:55;2.97;;;0.90;;
6101;SDS011;3081;50.584;7.032;2023-12-20T08:53:22;4.97;;;1.20;;
6101;SDS011;3081;50.584;7.032;2023-12-20T08:55:50;5.90;;;1.30;;
6101;SDS011;3081;50.584;7.032;2023-12-20T08:58:18;6.47;;;1.90;;
6101;SDS011;3081;50.584;7.032;2023-12-20T09:00:45;2.17;;;1.07;;
6101;SDS011;3081;50.584;7.032;2023-12-20T09:03:12;2.13;;;1.07;;
6101;SDS011;3081;50.584;7.032;2023-12-20T09:05:39;3.63;;;1.50;;
6101;SDS011;3081;50.584;7.032;2023-12-20T09:08:06;3.77;;;0.73;;
6101;SDS011;3081;50.584;7.032;2023-12-20T09:10:35;8.00;;;2.07;;
6101;SDS011;3081;50.584;7.032;2023-12-20T09:13:03;2.50;;;0.73;;
6101;SDS011;3081;50.584;7.032;2023-12-20T09:15:31;3.20;;;0.90;;
6101;SDS011;3081;50.584;7.032;2023-12-20T09:17:59;7.50;;;1.40;;
6101;SDS011;3081;50.584;7.032;2023-12-20T09:20:26;6.90;;;1.17;;
6101;SDS011;3081;50.584;7.032;2023-12-20T09:22:53;4.80;;;0.80;;
6101;SDS011;3081;50.584;7.032;2023-12-20T09:25:20;6.07;;;1.40;;
6101;SDS011;3081;50.584;7.032;2023-12-20T09:27:48;6.87;;;1.83;;
6101;SDS011;3081;50.584;7.032;2023-12-20T09:30:15;5.83;;;1.50;;
6101;SDS011;3081;50.584;7.032;2023-12-20T09:32:43;4.90;;;0.90;;
6101;SDS011;3081;50.584;7.032;2023-12-20T09:35:11;8.67;;;1.23;;
6101;SDS011;3081;50.584;7.032;2023-12-20T09:37:39;4.67;;;1.33;;
6101;SDS011;3081;50.584;7.032;2023-12-20T09:40:10;7.70;;;1.20;;
6101;SDS011;3081;50.584;7.032;2023-12-20T09:42:39;5.33;;;1.13;;
6101;SDS011;3081;50.584;7.032;2023-12-20T09:45:17;9.73;;;1.33;;
6101;SDS011;3081;50.584;7.032;2023-12-20T09:47:48;5.83;;;1.47;;
6101;SDS011;3081;50.584;7.032;2023-12-20T09:50:16;6.90;;;1.63;;
6101;SDS011;3081;50.584;7.032;2023-12-20T09:52:46;9.10;;;1.33;;
6101;SDS011;3081;50.584;7.032;2023-12-20T09:55:17;10.03;;;2.70;;
6101;SDS011;3081;50.584;7.032;2023-12-20T09:57:45;9.83;;;1.50;;
6101;SDS011;3081;50.584;7.032;2023-12-20T10:00:12;6.77;;;1.50;;
6101;SDS011;3081;50.584;7.032;2023-12-20T10:02:42;5.27;;;0.77;;
6101;SDS011;3081;50.584;7.032;2023-12-20T10:05:16;6.90;;;1.00;;
6101;SDS011;3081;50.584;7.032;2023-12-20T10:07:45;5.50;;;1.20;;
6101;SDS011;3081;50.584;7.032;2023-12-20T10:10:12;7.57;;;1.50;;
6101;SDS011;3081;50.584;7.032;2023-12-20T10:12:39;5.37;;;1.53;;
6101;SDS011;3081;50.584;7.032;2023-12-20T10:15:07;5.40;;;1.53;;
6101;SDS011;3081;50.584;7.032;2023-12-20T10:17:35;5.97;;;1.50;;
6101;SDS011;3081;50.584;7.032;2023-12-20T10:20:03;6.30;;;1.60;;
6101;SDS011;3081;50.584;7.032;2023-12-20T10:22:36;5.40;;;1.60;;
6101;SDS011;3081;50.584;7.032;2023-12-20T10:25:04;8.17;;;1.93;;
6101;SDS011;3081;50.584;7.032;2023-12-20T10:27:32;13.50;;;1.80;;
6101;SDS011;3081;50.584;7.032;2023-12-20T10:29:59;12.70;;;1.40;;
6101;SDS011;3081;50.584;7.032;2023-12-20T10:32:26;3.50;;;0.80;;
6101;SDS011;3081;50.584;7.032;2023-12-20T10:34:54;2.40;;;0.60;;
6101;SDS011;3081;50.584;7.032;2023-12-20T10:37:21;4.37;;;1.20;;
6101;SDS011;3081;50.584;7.032;2023-12-20T10:39:50;6.53;;;1.37;;
6101;SDS011;3081;50.584;7.032;2023-12-20T10:42:21;5.27;;;1.53;;
6101;SDS011;3081;50.584;7.032;2023-12-20T10:44:49;8.73;;;1.30;;
6101;SDS011;3081;50.584;7.032;2023-12-20T10:47:16;5.63;;;1.20;;
6101;SDS011;3081;50.584;7.032;2023-12-20T10:49:43;7.10;;;1.17;;
6101;SDS011;3081;50.584;7.032;2023-12-20T10:52:12;7.73;;;2.23;;
6101;SDS011;3081;50.584;7.032;2023-12-20T10:54:39;3.53;;;1.30;;
6101;SDS011;3081;50.584;7.032;2023-12-20T10:57:08;3.03;;;1.23;;
6101;SDS011;3081;50.584;7.032;2023-12-20T10:59:36;6.07;;;1.30;;
6101;SDS011;3081;50.584;7.032;2023-12-20T11:02:03;11.10;;;2.50;;
6101;SDS011;3081;50.584;7.032;2023-12-20T11:04:34;3.60;;;1.37;;
6101;SDS011;3081;50.584;7.032;2023-12-20T11:07:07;8.43;;;2.10;;
6101;SDS011;3081;50.584;7.032;2023-12-20T11:09:45;6.03;;;1.17;;
6101;SDS011;3081;50.584;7.032;2023-12-20T11:12:20;3.70;;;1.73;;
6101;SDS011;3081;50.584;7.032;2023-12-20T11:14:55;4.87;;;1.83;;
6101;SDS011;3081;50.584;7.032;2023-12-20T11:17:25;5.93;;;2.23;;
6101;SDS011;3081;50.584;7.032;2023-12-20T11:20:06;4.83;;;1.63;;
6101;SDS011;3081;50.584;7.032;2023-12-20T11:22:37;9.20;;;2.00;;
6101;SDS011;3081;50.584;7.032;2023-12-20T11:25:07;8.57;;;1.87;;
6101;SDS011;3081;50.584;7.032;2023-12-20T11:27:40;4.23;;;1.80;;
6101;SDS011;3081;50.584;7.032;2023-12-20T11:30:09;5.07;;;1.43;;
6101;SDS011;3081;50.584;7.032;2023-12-20T11:32:36;17.13;;;2.57;;
6101;SDS011;3081;50.584;7.032;2023-12-20T11:35:16;4.13;;;1.13;;
6101;SDS011;3081;50.584;7.032;2023-12-20T11:37:45;3.50;;;1.17;;
6101;SDS011;3081;50.584;7.032;2023-12-20T11:40:13;9.50;;;1.90;;
6101;SDS011;3081;50.584;7.032;2023-12-20T11:42:43;8.93;;;1.80;;
6101;SDS011;3081;50.584;7.032;2023-12-20T11:45:13;9.70;;;1.90;;
6101;SDS011;3081;50.584;7.032;2023-12-20T11:47:42;4.27;;;1.53;;
6101;SDS011;3081;50.584;7.032;2023-12-20T11:50:11;6.97;;;1.90;;
6101;SDS011;3081;50.584;7.032;2023-12-20T11:52:38;6.47;;;2.10;;
6101;SDS011;3081;50.584;7.032;2023-12-20T11:55:06;5.50;;;2.10;;
6101;SDS011;3081;50.584;7.032;2023-12-20T11:57:33;6.97;;;1.90;;
6101;SDS011;3081;50.584;7.032;2023-12-20T12:00:02;7.30;;;1.50;;
6101;SDS011;3081;50.584;7.032;2023-12-20T12:02:29;4.90;;;1.57;;
6101;SDS011;3081;50.584;7.032;2023-12-20T12:04:56;7.57;;;1.87;;
6101;SDS011;3081;50.584;7.032;2023-12-20T12:07:24;4.10;;;1.07;;
6101;SDS011;3081;50.584;7.032;2023-12-20T12:09:51;6.53;;;1.67;;
6101;SDS011;3081;50.584;7.032;2023-12-20T12:12:18;4.63;;;1.73;;
6101;SDS011;3081;50.584;7.032;2023-12-20T12:14:45;4.90;;;1.43;;
6101;SDS011;3081;50.584;7.032;2023-12-20T12:17:14;6.23;;;1.83;;
6101;SDS011;3081;50.584;7.032;2023-12-20T12:19:42;4.17;;;1.63;;
6101;SDS011;3081;50.584;7.032;2023-12-20T12:22:10;6.00;;;2.03;;
6101;SDS011;3081;50.584;7.032;2023-12-20T12:24:39;4.33;;;1.50;;
6101;SDS011;3081;50.584;7.032;2023-12-20T12:27:06;4.40;;;1.37;;
6101;SDS011;3081;50.584;7.032;2023-12-20T12:29:33;5.18;;;1.58;;
6101;SDS011;3081;50.584;7.032;2023-12-20T12:32:00;6.27;;;2.23;;
6101;SDS011;3081;50.584;7.032;2023-12-20T12:34:32;4.47;;;2.50;;
6101;SDS011;3081;50.584;7.032;2023-12-20T12:36:59;4.90;;;2.10;;
6101;SDS011;3081;50.584;7.032;2023-12-20T12:39:26;6.30;;;1.70;;
6101;SDS011;3081;50.584;7.032;2023-12-20T12:41:54;8.77;;;2.20;;
6101;SDS011;3081;50.584;7.032;2023-12-20T12:44:22;4.80;;;1.93;;
6101;SDS011;3081;50.584;7.032;2023-12-20T12:46:50;4.30;;;1.27;;
6101;SDS011;3081;50.584;7.032;2023-12-20T12:49:18;5.57;;;1.97;;
6101;SDS011;3081;50.584;7.032;2023-12-20T12:51:47;5.53;;;2.27;;
6101;SDS011;3081;50.584;7.032;2023-12-20T12:54:14;5.27;;;1.33;;
6101;SDS011;3081;50.584;7.032;2023-12-20T12:56:43;2.90;;;1.57;;
6101;SDS011;3081;50.584;7.032;2023-12-20T12:59:12;7.13;;;3.00;;
6101;SDS011;3081;50.584;7.032;2023-12-20T13:01:39;27.07;;;2.83;;
6101;SDS011;3081;50.584;7.032;2023-12-20T13:04:06;11.80;;;7.20;;
6101;SDS011;3081;50.584;7.032;2023-12-20T13:06:35;4.03;;;2.20;;
6101;SDS011;3081;50.584;7.032;2023-12-20T13:09:04;6.10;;;2.63;;
6101;SDS011;3081;50.584;7.032;2023-12-20T13:11:31;9.20;;;4.47;;
6101;SDS011;3081;50.584;7.032;2023-12-20T13:13:58;5.80;;;2.73;;
6101;SDS011;3081;50.584;7.032;2023-12-20T13:16:25;24.47;;;5.23;;
6101;SDS011;3081;50.584;7.032;2023-12-20T13:18:52;14.10;;;3.20;;
6101;SDS011;3081;50.584;7.032;2023-12-20T13:21:19;5.10;;;2.30;;
6101;SDS011;3081;50.584;7.032;2023-12-20T13:23:46;6.30;;;3.13;;
6101;SDS011;3081;50.584;7.032;2023-12-20T13:26:14;7.13;;;4.57;;
6101;SDS011;3081;50.584;7.032;2023-12-20T13:28:42;10.40;;;2.80;;
6101;SDS011;3081;50.584;7.032;2023-12-20T13:31:09;2.70;;;1.43;;
6101;SDS011;3081;50.584;7.032;2023-12-20T13:33:36;2.23;;;1.30;;
6101;SDS011;3081;50.584;7.032;2023-12-20T13:36:03;6.70;;;2.97;;
6101;SDS011;3081;50.584;7.032;2023-12-20T13:38:31;5.53;;;1.80;;
6101;SDS011;3081;50.584;7.032;2023-12-20T13:40:58;2.13;;;1.20;;
6101;SDS011;3081;50.584;7.032;2023-12-20T13:43:26;3.17;;;1.47;;
6101;SDS011;3081;50.584;7.032;2023-12-20T13:45:53;3.37;;;1.80;;
6101;SDS011;3081;50.584;7.032;2023-12-20T13:48:21;4.33;;;2.30;;
6101;SDS011;3081;50.584;7.032;2023-12-20T13:50:48;3.43;;;1.93;;
6101;SDS011;3081;50.584;7.032;2023-12-20T13:53:15;6.67;;;2.10;;
6101;SDS011;3081;50.584;7.032;2023-12-20T13:55:42;6.37;;;2.70;;
6101;SDS011;3081;50.584;7.032;2023-12-20T13:58:09;5.00;;;2.20;;
6101;SDS011;3081;50.584;7.032;2023-12-20T14:00:37;2.03;;;1.03;;
6101;SDS011;3081;50.584;7.032;2023-12-20T14:03:05;2.70;;;1.40;;
6101;SDS011;3081;50.584;7.032;2023-12-20T14:05:35;4.90;;;1.77;;
6101;SDS011;3081;50.584;7.032;2023-12-20T14:08:02;10.93;;;1.03;;
6101;SDS011;3081;50.584;7.032;2023-12-20T14:10:29;2.20;;;1.27;;
6101;SDS011;3081;50.584;7.032;2023-12-20T14:12:57;3.27;;;2.43;;
6101;SDS011;3081;50.584;7.032;2023-12-20T14:15:24;1.43;;;0.87;;
6101;SDS011;3081;50.584;7.032;2023-12-20T14:17:52;4.07;;;2.43;;
6101;SDS011;3081;50.584;7.032;2023-12-20T14:20:19;1.87;;;1.20;;
6101;SDS011;3081;50.584;7.032;2023-12-20T14:22:46;2.03;;;0.53;;
6101;SDS011;3081;50.584;7.032;2023-12-20T14:25:14;4.13;;;0.80;;
6101;SDS011;3081;50.584;7.032;2023-12-20T14:27:41;1.00;;;0.57;;
6101;SDS011;3081;50.584;7.032;2023-12-20T14:30:09;12.73;;;6.47;;
6101;SDS011;3081;50.584;7.032;2023-12-20T14:32:36;11.30;;;5.40;;
6101;SDS011;3081;50.584;7.032;2023-12-20T14:35:06;12.67;;;5.27;;
6101;SDS011;3081;50.584;7.032;2023-12-20T14:37:33;3.37;;;1.73;;
6101;SDS011;3081;50.584;7.032;2023-12-20T14:40:00;14.00;;;7.30;;
6101;SDS011;3081;50.584;7.032;2023-12-20T14:42:27;6.70;;;3.00;;
6101;SDS011;3081;50.584;7.032;2023-12-20T14:44:54;2.07;;;1.40;;
6101;SDS011;3081;50.584;7.032;2023-12-20T14:47:21;4.23;;;2.23;;
6101;SDS011;3081;50.584;7.032;2023-12-20T14:49:50;1.83;;;0.60;;
6101;SDS011;3081;50.584;7.032;2023-12-20T14:52:18;4.30;;;1.50;;
6101;SDS011;3081;50.584;7.032;2023-12-20T14:54:45;1.70;;;0.80;;
6101;SDS011;3081;50.584;7.032;2023-12-20T14:57:13;1.30;;;0.80;;
6101;SDS011;3081;50.584;7.032;2023-12-20T14:59:40;3.80;;;0.80;;
6101;SDS011;3081;50.584;7.032;2023-12-20T15:02:08;1.20;;;0.60;;
6101;SDS011;3081;50.584;7.032;2023-12-20T15:04:35;1.80;;;1.20;;
6101;SDS011;3081;50.584;7.032;2023-12-20T15:07:02;10.60;;;1.50;;
6101;SDS011;3081;50.584;7.032;2023-12-20T15:09:32;3.00;;;1.03;;
6101;SDS011;3081;50.584;7.032;2023-12-20T15:11:59;1.50;;;1.00;;
6101;SDS011;3081;50.584;7.032;2023-12-20T15:14:26;1.97;;;0.63;;
6101;SDS011;3081;50.584;7.032;2023-12-20T15:16:53;1.83;;;1.00;;